Aérodrome :
LOGIN :

S'inscrire | Disclaimer

   EN    FR    IT 

 










Légende :    VFR   VFR Marginal   IFR   IFR Intensif   IFR Très Intensif
Visi : 
Plafond : 
>= 8 km
>= 3000ft
5 à 8 km
1000 à 3000 ft
1500m à 5 km
500 à 1000 ft
800 à 1500m
200 à 500 ft
< 800m
< 200 ft
Symboles :   Orages  Brouillard  Fortes neiges  Fortes précipitations  Vent > 20 kt
SIGMETs :   Divers  Orages  Givrage  Turbulence  Onde Orograph.  Cendres Volcan.







- Altitude de l'aérodrome : 796 ft
- Code IATA : SYT
- Voir les cartes d'approche


LFLN - Saint-Yan

DERNIER METAR :
  • 112130Z AUTO 00000KT 1500 1100 R33/1400D BR VV/// M01/M01 Q1023 TEMPO 0200 FZFG

METARs EXPIRÉS :
  • 112100Z AUTO 00000KT 0500 0450 R33/0650U FZFG VV/// M01/M01 Q1023 TEMPO 0200 FZFG
  • 112030Z AUTO 00000KT 0300 R33/0400D FG VV/// 00/M00 Q1023 BECMG 0500 FG OVC003
  • 112000Z AUTO 00000KT 0800 0250 R33/0300D FG FEW029 01/00 Q1023 BECMG 0500 FG OVC003
  • 111930Z AUTO 33004KT 3800 BR FEW028 SCT038 02/01 Q1023 BECMG 0500 FG OVC003
  • 111900Z AUTO 33002KT 5000 BR OVC037 02/01 Q1023 BECMG 0500 FG OVC003

TAF AMD TAF LFLN
Valide du 11 à 20h jusqu'au 12 à 03h UTC


112036Z 1120/1203 VRB03KT 0500 FG OVC003
TEMPO 1120/1203 0200 FZFG VV///
Pas de NOTAMs connus pour ce terrain.



MET'MAP, la Météo Aéronautique d'un coup d'oeil ! - Copyright ORBIFLY Décembre 2007 - Disclaimer

ORBIFLY MET'MAP TEAM :

Programmation & Développement : Alexandra Zaïnal
Conception & Développement : Baudouin d'Aumeries
Co-Programmation & Développement : Marc-Olivier Méhu
Soutien technique & logistique : Manuel Goepfert

Contact : metmap@orbifly.com




SOURCES & CREDITS :

   NOAA